Accueil
METAR-TAF:

METAR-TAF

Aéroports :

Fritzlar, Allemagne

latitude: 51-07N, longitude: 009-17E, altitude: 172 m

Observation

Le bulletin a été fait il y a 41 minutes, à 20:50 UTC
Vent 14 kt de sud/sud-ouest
Température 3°C
Humidité 81%
Pression 1010 hPa
Visibilité 10 km ou plus
Quelques nuages à une hauteur de 1200 ft
Ciel couvert à une hauteur de 1600 ft
pluie faible

METAR: ETHF 282050Z 20014KT 9999 -RA FEW012 OVC016 03/00 Q1010 WHT

Heure: 22:31 (21:31 UTC)

Prévision

Le bulletin a été fait il y a 11 heures et 11 minutes, à 10:20 UTC
Prévision valable du 28 à 09 UTC au 28 à 18 UTC
Vent 10 kt de sud-ouest
Visibilité: 1100 m
Quelques nuages à une hauteur de 3000 ft

TAF: ETHF 281020Z 2809/2818 22010KT 9999 NSW FEW030 CANCEL 1100

Observations et prévisions météorologiques de plus de 4000 aéroports (messages METAR et TAF).

Les stations disponibles sont représentées par des disques jaunes et rouges sur la carte.

Passer la souris dessus pour voir le nom de la station.

Cliquer dessus pour voir les observations et prévisions météorologiques.

Pour changer de carte: cliquez sur les boutons verts avec une croix noire pour zoomer, sur le bouton vert avec un tiret pour effectuer un zoom arrière, ou sur les flèches vertes pour les cartes adjacentes.


METAR-TAF: